sensor_id;sensor_type;location;lat;lon;timestamp;P1;durP1;ratioP1;P2;durP2;ratioP2
8312;SDS011;4194;43.408;24.626;2022-10-18T00:01:35;6.67;;;4.03;;
8312;SDS011;4194;43.408;24.626;2022-10-18T00:04:01;6.77;;;4.27;;
8312;SDS011;4194;43.408;24.626;2022-10-18T00:06:27;6.63;;;4.53;;
8312;SDS011;4194;43.408;24.626;2022-10-18T00:08:53;7.37;;;4.90;;
8312;SDS011;4194;43.408;24.626;2022-10-18T00:11:18;6.60;;;4.43;;
8312;SDS011;4194;43.408;24.626;2022-10-18T00:13:44;6.63;;;4.30;;
8312;SDS011;4194;43.408;24.626;2022-10-18T00:16:13;6.03;;;4.43;;
8312;SDS011;4194;43.408;24.626;2022-10-18T00:18:40;6.63;;;4.80;;
8312;SDS011;4194;43.408;24.626;2022-10-18T00:21:11;6.07;;;4.23;;
8312;SDS011;4194;43.408;24.626;2022-10-18T00:23:38;8.33;;;4.37;;
8312;SDS011;4194;43.408;24.626;2022-10-18T00:26:06;9.20;;;4.83;;
8312;SDS011;4194;43.408;24.626;2022-10-18T00:28:38;5.97;;;3.90;;
8312;SDS011;4194;43.408;24.626;2022-10-18T00:31:23;6.90;;;4.07;;
8312;SDS011;4194;43.408;24.626;2022-10-18T00:34:00;9.73;;;4.73;;
8312;SDS011;4194;43.408;24.626;2022-10-18T00:36:32;10.03;;;5.00;;
8312;SDS011;4194;43.408;24.626;2022-10-18T00:38:59;10.73;;;4.90;;
8312;SDS011;4194;43.408;24.626;2022-10-18T00:41:27;6.90;;;4.67;;
8312;SDS011;4194;43.408;24.626;2022-10-18T00:43:55;12.87;;;5.23;;
8312;SDS011;4194;43.408;24.626;2022-10-18T00:46:24;7.73;;;4.80;;
8312;SDS011;4194;43.408;24.626;2022-10-18T00:48:51;6.20;;;4.73;;
8312;SDS011;4194;43.408;24.626;2022-10-18T00:51:18;8.90;;;4.63;;
8312;SDS011;4194;43.408;24.626;2022-10-18T00:53:47;6.50;;;4.60;;
8312;SDS011;4194;43.408;24.626;2022-10-18T00:56:13;9.43;;;5.22;;
8312;SDS011;4194;43.408;24.626;2022-10-18T00:58:39;6.80;;;4.67;;
8312;SDS011;4194;43.408;24.626;2022-10-18T01:01:06;9.07;;;5.00;;
8312;SDS011;4194;43.408;24.626;2022-10-18T01:03:32;9.67;;;5.20;;
8312;SDS011;4194;43.408;24.626;2022-10-18T01:05:58;6.53;;;4.60;;
8312;SDS011;4194;43.408;24.626;2022-10-18T01:09:27;6.50;;;4.60;;
8312;SDS011;4194;43.408;24.626;2022-10-18T01:14:09;8.03;;;4.63;;
8312;SDS011;4194;43.408;24.626;2022-10-18T01:22:00;6.00;;;4.93;;
8312;SDS011;4194;43.408;24.626;2022-10-18T01:32:45;7.93;;;5.23;;
8312;SDS011;4194;43.408;24.626;2022-10-18T01:35:13;8.23;;;5.60;;
8312;SDS011;4194;43.408;24.626;2022-10-18T01:37:42;5.73;;;5.03;;
8312;SDS011;4194;43.408;24.626;2022-10-18T01:40:11;8.73;;;5.07;;
8312;SDS011;4194;43.408;24.626;2022-10-18T01:42:41;9.67;;;5.67;;
8312;SDS011;4194;43.408;24.626;2022-10-18T01:45:09;7.63;;;5.47;;
8312;SDS011;4194;43.408;24.626;2022-10-18T01:47:37;10.23;;;5.50;;
8312;SDS011;4194;43.408;24.626;2022-10-18T01:50:04;11.90;;;5.80;;
8312;SDS011;4194;43.408;24.626;2022-10-18T01:52:31;10.10;;;5.57;;
8312;SDS011;4194;43.408;24.626;2022-10-18T01:54:56;8.33;;;6.20;;
8312;SDS011;4194;43.408;24.626;2022-10-18T02:00:27;6.53;;;5.07;;
8312;SDS011;4194;43.408;24.626;2022-10-18T02:03:03;11.53;;;6.10;;
8312;SDS011;4194;43.408;24.626;2022-10-18T02:05:53;9.07;;;5.03;;
8312;SDS011;4194;43.408;24.626;2022-10-18T02:08:36;8.83;;;4.90;;
8312;SDS011;4194;43.408;24.626;2022-10-18T02:11:26;8.57;;;4.80;;
8312;SDS011;4194;43.408;24.626;2022-10-18T02:13:56;9.57;;;4.97;;
8312;SDS011;4194;43.408;24.626;2022-10-18T02:19:27;10.23;;;5.60;;
8312;SDS011;4194;43.408;24.626;2022-10-18T02:22:02;5.90;;;5.17;;
8312;SDS011;4194;43.408;24.626;2022-10-18T02:24:32;7.77;;;4.83;;
8312;SDS011;4194;43.408;24.626;2022-10-18T02:27:01;7.83;;;5.77;;
8312;SDS011;4194;43.408;24.626;2022-10-18T02:29:28;7.90;;;5.73;;
8312;SDS011;4194;43.408;24.626;2022-10-18T02:31:57;9.93;;;5.63;;
8312;SDS011;4194;43.408;24.626;2022-10-18T02:34:39;10.73;;;5.23;;
8312;SDS011;4194;43.408;24.626;2022-10-18T02:37:22;14.07;;;7.53;;
8312;SDS011;4194;43.408;24.626;2022-10-18T02:39:51;10.97;;;6.60;;
8312;SDS011;4194;43.408;24.626;2022-10-18T02:42:16;15.20;;;6.10;;
8312;SDS011;4194;43.408;24.626;2022-10-18T02:44:42;11.97;;;6.33;;
8312;SDS011;4194;43.408;24.626;2022-10-18T02:47:08;15.53;;;6.53;;
8312;SDS011;4194;43.408;24.626;2022-10-18T02:49:35;10.53;;;6.40;;
8312;SDS011;4194;43.408;24.626;2022-10-18T02:52:01;10.77;;;6.47;;
8312;SDS011;4194;43.408;24.626;2022-10-18T02:54:27;10.07;;;5.70;;
8312;SDS011;4194;43.408;24.626;2022-10-18T02:56:52;9.60;;;5.67;;
8312;SDS011;4194;43.408;24.626;2022-10-18T02:59:18;6.30;;;4.77;;
8312;SDS011;4194;43.408;24.626;2022-10-18T03:01:44;6.27;;;5.10;;
8312;SDS011;4194;43.408;24.626;2022-10-18T03:04:09;7.93;;;5.90;;
8312;SDS011;4194;43.408;24.626;2022-10-18T03:06:35;8.47;;;5.30;;
8312;SDS011;4194;43.408;24.626;2022-10-18T03:09:02;7.63;;;5.60;;
8312;SDS011;4194;43.408;24.626;2022-10-18T03:11:29;6.67;;;4.80;;
8312;SDS011;4194;43.408;24.626;2022-10-18T03:13:54;6.90;;;4.60;;
8312;SDS011;4194;43.408;24.626;2022-10-18T03:16:20;6.47;;;5.00;;
8312;SDS011;4194;43.408;24.626;2022-10-18T03:18:46;5.93;;;4.47;;
8312;SDS011;4194;43.408;24.626;2022-10-18T03:21:12;8.27;;;4.90;;
8312;SDS011;4194;43.408;24.626;2022-10-18T03:23:37;10.03;;;5.37;;
8312;SDS011;4194;43.408;24.626;2022-10-18T03:26:05;13.27;;;5.37;;
8312;SDS011;4194;43.408;24.626;2022-10-18T03:28:31;9.87;;;6.37;;
8312;SDS011;4194;43.408;24.626;2022-10-18T03:31:00;10.83;;;5.90;;
8312;SDS011;4194;43.408;24.626;2022-10-18T03:33:28;9.13;;;6.23;;
8312;SDS011;4194;43.408;24.626;2022-10-18T03:35:54;7.33;;;5.70;;
8312;SDS011;4194;43.408;24.626;2022-10-18T03:38:20;6.37;;;5.70;;
8312;SDS011;4194;43.408;24.626;2022-10-18T03:40:45;12.70;;;5.50;;
8312;SDS011;4194;43.408;24.626;2022-10-18T03:43:11;8.13;;;5.67;;
8312;SDS011;4194;43.408;24.626;2022-10-18T03:45:37;5.80;;;4.83;;
8312;SDS011;4194;43.408;24.626;2022-10-18T03:48:02;7.07;;;5.20;;
8312;SDS011;4194;43.408;24.626;2022-10-18T03:50:28;10.97;;;5.00;;
8312;SDS011;4194;43.408;24.626;2022-10-18T03:52:54;11.27;;;5.97;;
8312;SDS011;4194;43.408;24.626;2022-10-18T03:55:19;7.93;;;5.63;;
8312;SDS011;4194;43.408;24.626;2022-10-18T03:57:45;8.37;;;5.97;;
8312;SDS011;4194;43.408;24.626;2022-10-18T04:00:11;13.30;;;7.60;;
8312;SDS011;4194;43.408;24.626;2022-10-18T04:02:37;10.73;;;5.27;;
8312;SDS011;4194;43.408;24.626;2022-10-18T04:05:03;7.93;;;5.13;;
8312;SDS011;4194;43.408;24.626;2022-10-18T04:07:29;10.40;;;5.67;;
8312;SDS011;4194;43.408;24.626;2022-10-18T04:09:54;10.30;;;5.63;;
8312;SDS011;4194;43.408;24.626;2022-10-18T04:12:20;8.77;;;5.60;;
8312;SDS011;4194;43.408;24.626;2022-10-18T04:14:46;6.83;;;5.57;;
8312;SDS011;4194;43.408;24.626;2022-10-18T04:17:11;11.00;;;5.70;;
8312;SDS011;4194;43.408;24.626;2022-10-18T04:19:37;7.90;;;5.90;;
8312;SDS011;4194;43.408;24.626;2022-10-18T04:22:03;10.47;;;5.83;;
8312;SDS011;4194;43.408;24.626;2022-10-18T04:24:28;13.13;;;5.73;;
8312;SDS011;4194;43.408;24.626;2022-10-18T04:26:54;10.23;;;5.90;;
8312;SDS011;4194;43.408;24.626;2022-10-18T04:29:19;11.53;;;6.17;;
8312;SDS011;4194;43.408;24.626;2022-10-18T04:31:45;10.77;;;6.13;;
8312;SDS011;4194;43.408;24.626;2022-10-18T04:34:11;7.27;;;6.43;;
8312;SDS011;4194;43.408;24.626;2022-10-18T04:36:37;14.53;;;8.17;;
8312;SDS011;4194;43.408;24.626;2022-10-18T04:39:02;20.47;;;10.33;;
8312;SDS011;4194;43.408;24.626;2022-10-18T04:41:28;14.90;;;9.83;;
8312;SDS011;4194;43.408;24.626;2022-10-18T04:43:54;15.93;;;9.17;;
8312;SDS011;4194;43.408;24.626;2022-10-18T04:46:20;12.20;;;7.70;;
8312;SDS011;4194;43.408;24.626;2022-10-18T04:48:45;16.03;;;6.83;;
8312;SDS011;4194;43.408;24.626;2022-10-18T04:51:11;13.23;;;6.97;;
8312;SDS011;4194;43.408;24.626;2022-10-18T04:53:38;10.03;;;6.50;;
8312;SDS011;4194;43.408;24.626;2022-10-18T04:56:03;18.27;;;8.80;;
8312;SDS011;4194;43.408;24.626;2022-10-18T04:58:29;11.10;;;6.60;;
8312;SDS011;4194;43.408;24.626;2022-10-18T05:00:56;9.90;;;6.60;;
8312;SDS011;4194;43.408;24.626;2022-10-18T05:03:22;12.23;;;7.57;;
8312;SDS011;4194;43.408;24.626;2022-10-18T05:05:47;13.90;;;8.70;;
8312;SDS011;4194;43.408;24.626;2022-10-18T05:08:13;17.23;;;7.90;;
8312;SDS011;4194;43.408;24.626;2022-10-18T05:10:39;13.93;;;7.30;;
8312;SDS011;4194;43.408;24.626;2022-10-18T05:13:04;15.27;;;7.80;;
8312;SDS011;4194;43.408;24.626;2022-10-18T05:15:30;16.10;;;7.57;;
8312;SDS011;4194;43.408;24.626;2022-10-18T05:17:56;14.60;;;7.90;;
8312;SDS011;4194;43.408;24.626;2022-10-18T05:20:21;20.63;;;8.97;;
8312;SDS011;4194;43.408;24.626;2022-10-18T05:22:47;12.47;;;7.73;;
8312;SDS011;4194;43.408;24.626;2022-10-18T05:25:13;15.13;;;9.87;;
8312;SDS011;4194;43.408;24.626;2022-10-18T05:27:38;22.00;;;9.63;;
8312;SDS011;4194;43.408;24.626;2022-10-18T05:30:04;16.73;;;8.97;;
8312;SDS011;4194;43.408;24.626;2022-10-18T05:32:30;15.60;;;8.57;;
8312;SDS011;4194;43.408;24.626;2022-10-18T05:34:56;19.40;;;7.50;;
8312;SDS011;4194;43.408;24.626;2022-10-18T05:37:21;12.23;;;7.53;;
8312;SDS011;4194;43.408;24.626;2022-10-18T05:39:47;22.73;;;10.07;;
8312;SDS011;4194;43.408;24.626;2022-10-18T05:42:13;18.53;;;9.53;;
8312;SDS011;4194;43.408;24.626;2022-10-18T05:44:38;18.87;;;7.97;;
8312;SDS011;4194;43.408;24.626;2022-10-18T05:47:04;19.27;;;9.83;;
8312;SDS011;4194;43.408;24.626;2022-10-18T05:49:29;17.53;;;9.10;;
8312;SDS011;4194;43.408;24.626;2022-10-18T05:51:55;18.40;;;9.20;;
8312;SDS011;4194;43.408;24.626;2022-10-18T05:54:21;12.73;;;8.17;;
8312;SDS011;4194;43.408;24.626;2022-10-18T05:56:46;16.93;;;7.93;;
8312;SDS011;4194;43.408;24.626;2022-10-18T05:59:12;13.17;;;9.23;;
8312;SDS011;4194;43.408;24.626;2022-10-18T06:01:38;20.20;;;10.10;;
8312;SDS011;4194;43.408;24.626;2022-10-18T06:04:06;15.87;;;8.40;;
8312;SDS011;4194;43.408;24.626;2022-10-18T06:06:34;13.17;;;8.07;;
8312;SDS011;4194;43.408;24.626;2022-10-18T06:09:00;21.70;;;8.27;;
8312;SDS011;4194;43.408;24.626;2022-10-18T06:11:27;13.03;;;8.50;;
8312;SDS011;4194;43.408;24.626;2022-10-18T06:13:54;13.57;;;8.00;;
8312;SDS011;4194;43.408;24.626;2022-10-18T06:16:22;12.60;;;9.23;;
8312;SDS011;4194;43.408;24.626;2022-10-18T06:18:49;13.80;;;9.20;;
8312;SDS011;4194;43.408;24.626;2022-10-18T06:21:16;16.80;;;8.80;;
8312;SDS011;4194;43.408;24.626;2022-10-18T06:23:43;14.33;;;8.17;;
8312;SDS011;4194;43.408;24.626;2022-10-18T06:26:16;12.97;;;8.70;;
8312;SDS011;4194;43.408;24.626;2022-10-18T06:28:42;22.17;;;9.47;;
8312;SDS011;4194;43.408;24.626;2022-10-18T06:31:08;17.67;;;9.83;;
8312;SDS011;4194;43.408;24.626;2022-10-18T06:33:35;18.27;;;9.43;;
8312;SDS011;4194;43.408;24.626;2022-10-18T06:36:03;16.53;;;9.50;;
8312;SDS011;4194;43.408;24.626;2022-10-18T06:38:30;15.43;;;9.23;;
8312;SDS011;4194;43.408;24.626;2022-10-18T06:40:56;15.20;;;9.07;;
8312;SDS011;4194;43.408;24.626;2022-10-18T06:43:23;16.83;;;8.93;;
8312;SDS011;4194;43.408;24.626;2022-10-18T06:45:49;22.40;;;9.30;;
8312;SDS011;4194;43.408;24.626;2022-10-18T06:48:15;21.80;;;10.03;;
8312;SDS011;4194;43.408;24.626;2022-10-18T06:50:42;20.00;;;9.40;;
8312;SDS011;4194;43.408;24.626;2022-10-18T06:53:14;24.10;;;11.00;;
8312;SDS011;4194;43.408;24.626;2022-10-18T06:55:40;20.47;;;11.60;;
8312;SDS011;4194;43.408;24.626;2022-10-18T06:58:06;24.87;;;11.40;;
8312;SDS011;4194;43.408;24.626;2022-10-18T07:00:31;25.97;;;12.87;;
8312;SDS011;4194;43.408;24.626;2022-10-18T07:02:57;35.93;;;12.97;;
8312;SDS011;4194;43.408;24.626;2022-10-18T07:05:23;27.53;;;13.60;;
8312;SDS011;4194;43.408;24.626;2022-10-18T07:07:48;34.00;;;14.63;;
8312;SDS011;4194;43.408;24.626;2022-10-18T07:10:14;32.17;;;14.10;;
8312;SDS011;4194;43.408;24.626;2022-10-18T07:12:40;30.77;;;13.20;;
8312;SDS011;4194;43.408;24.626;2022-10-18T07:15:05;26.23;;;13.33;;
8312;SDS011;4194;43.408;24.626;2022-10-18T07:17:31;25.07;;;13.30;;
8312;SDS011;4194;43.408;24.626;2022-10-18T07:19:57;29.00;;;12.97;;
8312;SDS011;4194;43.408;24.626;2022-10-18T07:22:23;18.20;;;11.93;;
8312;SDS011;4194;43.408;24.626;2022-10-18T07:24:48;22.37;;;11.40;;
8312;SDS011;4194;43.408;24.626;2022-10-18T07:27:14;24.30;;;12.40;;
8312;SDS011;4194;43.408;24.626;2022-10-18T07:29:40;25.80;;;12.27;;
8312;SDS011;4194;43.408;24.626;2022-10-18T07:32:05;28.03;;;13.77;;
8312;SDS011;4194;43.408;24.626;2022-10-18T07:34:31;27.17;;;12.60;;
8312;SDS011;4194;43.408;24.626;2022-10-18T07:36:57;34.77;;;15.67;;
8312;SDS011;4194;43.408;24.626;2022-10-18T07:39:22;23.67;;;14.43;;
8312;SDS011;4194;43.408;24.626;2022-10-18T07:41:48;25.83;;;13.37;;
8312;SDS011;4194;43.408;24.626;2022-10-18T07:44:14;23.50;;;15.57;;
8312;SDS011;4194;43.408;24.626;2022-10-18T07:46:39;24.50;;;13.77;;
8312;SDS011;4194;43.408;24.626;2022-10-18T07:49:05;21.17;;;13.13;;
8312;SDS011;4194;43.408;24.626;2022-10-18T07:51:31;19.70;;;11.77;;
8312;SDS011;4194;43.408;24.626;2022-10-18T07:53:58;17.20;;;10.53;;
8312;SDS011;4194;43.408;24.626;2022-10-18T07:56:24;15.73;;;9.47;;
8312;SDS011;4194;43.408;24.626;2022-10-18T07:58:50;19.63;;;10.73;;
8312;SDS011;4194;43.408;24.626;2022-10-18T08:01:18;24.73;;;12.63;;
8312;SDS011;4194;43.408;24.626;2022-10-18T08:03:45;28.87;;;14.33;;
8312;SDS011;4194;43.408;24.626;2022-10-18T08:06:12;26.00;;;13.17;;
8312;SDS011;4194;43.408;24.626;2022-10-18T08:08:40;19.73;;;13.53;;
8312;SDS011;4194;43.408;24.626;2022-10-18T08:11:07;18.43;;;11.30;;
8312;SDS011;4194;43.408;24.626;2022-10-18T08:13:43;28.13;;;11.63;;
8312;SDS011;4194;43.408;24.626;2022-10-18T08:16:11;24.97;;;12.00;;
8312;SDS011;4194;43.408;24.626;2022-10-18T08:18:38;28.67;;;12.13;;
8312;SDS011;4194;43.408;24.626;2022-10-18T08:21:05;26.87;;;11.33;;
8312;SDS011;4194;43.408;24.626;2022-10-18T08:23:32;15.60;;;10.73;;
8312;SDS011;4194;43.408;24.626;2022-10-18T08:26:03;13.27;;;10.73;;
8312;SDS011;4194;43.408;24.626;2022-10-18T08:28:30;22.80;;;10.27;;
8312;SDS011;4194;43.408;24.626;2022-10-18T08:30:56;18.40;;;10.63;;
8312;SDS011;4194;43.408;24.626;2022-10-18T08:33:25;13.07;;;9.10;;
8312;SDS011;4194;43.408;24.626;2022-10-18T08:35:58;16.57;;;8.73;;
8312;SDS011;4194;43.408;24.626;2022-10-18T08:38:25;17.93;;;10.27;;
8312;SDS011;4194;43.408;24.626;2022-10-18T08:40:53;14.00;;;9.27;;
8312;SDS011;4194;43.408;24.626;2022-10-18T08:46:32;22.07;;;10.67;;
8312;SDS011;4194;43.408;24.626;2022-10-18T08:49:01;19.77;;;10.87;;
8312;SDS011;4194;43.408;24.626;2022-10-18T08:54:04;16.03;;;8.37;;
8312;SDS011;4194;43.408;24.626;2022-10-18T08:56:34;13.57;;;7.20;;
8312;SDS011;4194;43.408;24.626;2022-10-18T08:59:00;22.73;;;7.63;;
8312;SDS011;4194;43.408;24.626;2022-10-18T09:20:27;7.30;;;2.73;;
8312;SDS011;4194;43.408;24.626;2022-10-18T09:26:18;7.27;;;3.13;;
8312;SDS011;4194;43.408;24.626;2022-10-18T09:34:24;7.00;;;4.30;;
8312;SDS011;4194;43.408;24.626;2022-10-18T09:36:54;5.27;;;3.07;;
8312;SDS011;4194;43.408;24.626;2022-10-18T09:39:24;3.43;;;2.70;;
8312;SDS011;4194;43.408;24.626;2022-10-18T09:41:59;6.13;;;2.27;;
8312;SDS011;4194;43.408;24.626;2022-10-18T09:44:37;3.30;;;2.50;;
8312;SDS011;4194;43.408;24.626;2022-10-18T09:47:17;9.57;;;2.97;;
8312;SDS011;4194;43.408;24.626;2022-10-18T09:49:54;8.33;;;2.80;;
8312;SDS011;4194;43.408;24.626;2022-10-18T09:52:42;6.67;;;2.70;;
8312;SDS011;4194;43.408;24.626;2022-10-18T09:55:17;5.43;;;2.63;;
8312;SDS011;4194;43.408;24.626;2022-10-18T09:57:52;5.33;;;3.00;;
8312;SDS011;4194;43.408;24.626;2022-10-18T10:00:27;5.80;;;2.60;;
8312;SDS011;4194;43.408;24.626;2022-10-18T10:02:56;7.07;;;2.47;;
8312;SDS011;4194;43.408;24.626;2022-10-18T10:05:24;3.30;;;2.17;;
8312;SDS011;4194;43.408;24.626;2022-10-18T10:07:50;3.57;;;2.43;;
8312;SDS011;4194;43.408;24.626;2022-10-18T10:10:24;2.47;;;2.17;;
8312;SDS011;4194;43.408;24.626;2022-10-18T10:13:06;6.83;;;2.50;;
8312;SDS011;4194;43.408;24.626;2022-10-18T10:15:53;3.87;;;2.27;;
8312;SDS011;4194;43.408;24.626;2022-10-18T10:18:28;5.67;;;3.30;;
8312;SDS011;4194;43.408;24.626;2022-10-18T10:21:03;4.77;;;2.53;;
8312;SDS011;4194;43.408;24.626;2022-10-18T10:23:32;2.87;;;1.80;;
8312;SDS011;4194;43.408;24.626;2022-10-18T10:26:03;6.70;;;2.30;;
8312;SDS011;4194;43.408;24.626;2022-10-18T10:28:42;4.27;;;2.17;;
8312;SDS011;4194;43.408;24.626;2022-10-18T10:36:26;2.20;;;1.90;;
8312;SDS011;4194;43.408;24.626;2022-10-18T10:39:03;7.07;;;2.20;;
8312;SDS011;4194;43.408;24.626;2022-10-18T10:41:36;2.87;;;1.70;;
8312;SDS011;4194;43.408;24.626;2022-10-18T10:44:04;2.67;;;1.70;;
8312;SDS011;4194;43.408;24.626;2022-10-18T10:46:42;6.70;;;1.97;;
8312;SDS011;4194;43.408;24.626;2022-10-18T10:49:12;2.43;;;2.20;;
8312;SDS011;4194;43.408;24.626;2022-10-18T10:51:45;6.27;;;2.30;;
8312;SDS011;4194;43.408;24.626;2022-10-18T10:54:22;3.97;;;2.13;;
8312;SDS011;4194;43.408;24.626;2022-10-18T10:59:29;3.23;;;1.70;;
8312;SDS011;4194;43.408;24.626;2022-10-18T11:04:48;2.00;;;1.80;;
8312;SDS011;4194;43.408;24.626;2022-10-18T11:07:35;3.87;;;2.10;;
8312;SDS011;4194;43.408;24.626;2022-10-18T11:20:47;2.57;;;1.53;;
8312;SDS011;4194;43.408;24.626;2022-10-18T11:23:17;3.70;;;1.70;;
8312;SDS011;4194;43.408;24.626;2022-10-18T11:31:18;4.97;;;1.50;;
8312;SDS011;4194;43.408;24.626;2022-10-18T11:36:29;3.13;;;1.67;;
8312;SDS011;4194;43.408;24.626;2022-10-18T11:39:07;4.20;;;1.60;;
8312;SDS011;4194;43.408;24.626;2022-10-18T11:41:38;2.93;;;1.60;;
8312;SDS011;4194;43.408;24.626;2022-10-18T11:46:46;4.47;;;1.70;;
8312;SDS011;4194;43.408;24.626;2022-10-18T11:49:20;2.63;;;1.53;;
8312;SDS011;4194;43.408;24.626;2022-10-18T12:00:26;1.58;;;1.40;;
8312;SDS011;4194;43.408;24.626;2022-10-18T12:05:46;4.20;;;1.50;;
8312;SDS011;4194;43.408;24.626;2022-10-18T12:08:20;2.47;;;1.60;;
8312;SDS011;4194;43.408;24.626;2022-10-18T12:10:51;1.30;;;1.20;;
8312;SDS011;4194;43.408;24.626;2022-10-18T12:14:06;2.97;;;1.58;;
8312;SDS011;4194;43.408;24.626;2022-10-18T12:16:15;6.07;;;1.38;;
8312;SDS011;4194;43.408;24.626;2022-10-18T12:18:50;3.90;;;1.63;;
8312;SDS011;4194;43.408;24.626;2022-10-18T12:21:30;1.75;;;1.30;;
8312;SDS011;4194;43.408;24.626;2022-10-18T12:23:58;4.57;;;1.50;;
8312;SDS011;4194;43.408;24.626;2022-10-18T12:26:29;2.22;;;1.20;;
8312;SDS011;4194;43.408;24.626;2022-10-18T12:28:59;3.63;;;1.38;;
8312;SDS011;4194;43.408;24.626;2022-10-18T12:31:29;5.57;;;1.55;;
8312;SDS011;4194;43.408;24.626;2022-10-18T12:40:13;3.10;;;1.65;;
8312;SDS011;4194;43.408;24.626;2022-10-18T12:42:53;4.10;;;1.58;;
8312;SDS011;4194;43.408;24.626;2022-10-18T12:47:50;2.42;;;1.40;;
8312;SDS011;4194;43.408;24.626;2022-10-18T12:53:16;3.47;;;1.58;;
8312;SDS011;4194;43.408;24.626;2022-10-18T12:55:48;4.78;;;1.35;;
8312;SDS011;4194;43.408;24.626;2022-10-18T12:58:23;3.88;;;1.45;;
8312;SDS011;4194;43.408;24.626;2022-10-18T13:00:57;4.53;;;1.42;;
8312;SDS011;4194;43.408;24.626;2022-10-18T13:19:19;4.43;;;1.30;;
8312;SDS011;4194;43.408;24.626;2022-10-18T13:38:25;6.45;;;2.03;;
8312;SDS011;4194;43.408;24.626;2022-10-18T13:41:27;2.33;;;1.55;;
8312;SDS011;4194;43.408;24.626;2022-10-18T13:48:51;6.68;;;2.00;;
8312;SDS011;4194;43.408;24.626;2022-10-18T13:54:18;6.50;;;1.90;;
8312;SDS011;4194;43.408;24.626;2022-10-18T13:57:05;4.13;;;1.60;;
8312;SDS011;4194;43.408;24.626;2022-10-18T14:08:23;2.60;;;1.60;;
8312;SDS011;4194;43.408;24.626;2022-10-18T14:13:49;3.13;;;1.40;;
8312;SDS011;4194;43.408;24.626;2022-10-18T14:16:26;1.93;;;1.57;;
8312;SDS011;4194;43.408;24.626;2022-10-18T14:19:13;2.80;;;1.60;;
8312;SDS011;4194;43.408;24.626;2022-10-18T14:21:58;5.70;;;1.50;;
8312;SDS011;4194;43.408;24.626;2022-10-18T14:24:48;3.80;;;1.63;;
8312;SDS011;4194;43.408;24.626;2022-10-18T14:27:22;3.83;;;1.60;;
8312;SDS011;4194;43.408;24.626;2022-10-18T14:29:50;4.93;;;1.53;;
8312;SDS011;4194;43.408;24.626;2022-10-18T14:32:41;4.87;;;1.87;;
8312;SDS011;4194;43.408;24.626;2022-10-18T14:35:42;3.43;;;1.70;;
8312;SDS011;4194;43.408;24.626;2022-10-18T14:38:01;3.80;;;1.70;;
8312;SDS011;4194;43.408;24.626;2022-10-18T14:40:37;2.13;;;1.53;;
8312;SDS011;4194;43.408;24.626;2022-10-18T14:43:14;7.17;;;1.43;;
8312;SDS011;4194;43.408;24.626;2022-10-18T14:45:43;6.37;;;1.73;;
8312;SDS011;4194;43.408;24.626;2022-10-18T14:48:17;4.40;;;1.70;;
8312;SDS011;4194;43.408;24.626;2022-10-18T14:50:47;4.07;;;1.67;;
8312;SDS011;4194;43.408;24.626;2022-10-18T14:53:29;3.87;;;1.77;;
8312;SDS011;4194;43.408;24.626;2022-10-18T14:56:01;6.13;;;2.07;;
8312;SDS011;4194;43.408;24.626;2022-10-18T14:58:28;6.50;;;2.10;;
8312;SDS011;4194;43.408;24.626;2022-10-18T15:00:55;3.87;;;2.17;;
8312;SDS011;4194;43.408;24.626;2022-10-18T15:03:22;7.07;;;2.60;;
8312;SDS011;4194;43.408;24.626;2022-10-18T15:05:56;2.80;;;2.50;;
8312;SDS011;4194;43.408;24.626;2022-10-18T15:08:26;8.20;;;2.47;;
8312;SDS011;4194;43.408;24.626;2022-10-18T15:11:06;2.50;;;2.10;;
8312;SDS011;4194;43.408;24.626;2022-10-18T15:13:37;4.57;;;2.37;;
8312;SDS011;4194;43.408;24.626;2022-10-18T15:16:16;8.10;;;2.40;;
8312;SDS011;4194;43.408;24.626;2022-10-18T15:18:43;6.23;;;2.37;;
8312;SDS011;4194;43.408;24.626;2022-10-18T15:21:23;7.43;;;2.90;;
8312;SDS011;4194;43.408;24.626;2022-10-18T15:23:49;6.23;;;2.40;;
8312;SDS011;4194;43.408;24.626;2022-10-18T15:26:26;6.67;;;2.80;;
8312;SDS011;4194;43.408;24.626;2022-10-18T15:28:54;11.50;;;2.80;;
8312;SDS011;4194;43.408;24.626;2022-10-18T15:33:54;19.43;;;4.07;;
8312;SDS011;4194;43.408;24.626;2022-10-18T15:36:39;13.17;;;4.77;;
8312;SDS011;4194;43.408;24.626;2022-10-18T15:39:15;8.63;;;5.00;;
8312;SDS011;4194;43.408;24.626;2022-10-18T15:41:47;10.50;;;4.90;;
8312;SDS011;4194;43.408;24.626;2022-10-18T15:54:59;17.87;;;7.40;;
8312;SDS011;4194;43.408;24.626;2022-10-18T15:57:27;24.73;;;8.70;;
8312;SDS011;4194;43.408;24.626;2022-10-18T15:59:58;30.07;;;10.87;;
8312;SDS011;4194;43.408;24.626;2022-10-18T16:02:26;25.13;;;10.40;;
8312;SDS011;4194;43.408;24.626;2022-10-18T16:04:52;28.27;;;11.77;;
8312;SDS011;4194;43.408;24.626;2022-10-18T16:07:18;17.67;;;8.93;;
8312;SDS011;4194;43.408;24.626;2022-10-18T16:09:45;15.57;;;7.53;;
8312;SDS011;4194;43.408;24.626;2022-10-18T16:12:10;12.00;;;6.70;;
8312;SDS011;4194;43.408;24.626;2022-10-18T16:14:36;12.80;;;5.77;;
8312;SDS011;4194;43.408;24.626;2022-10-18T16:17:03;12.03;;;5.30;;
8312;SDS011;4194;43.408;24.626;2022-10-18T16:19:30;11.93;;;5.63;;
8312;SDS011;4194;43.408;24.626;2022-10-18T16:21:57;18.67;;;6.50;;
8312;SDS011;4194;43.408;24.626;2022-10-18T16:24:24;13.00;;;5.20;;
8312;SDS011;4194;43.408;24.626;2022-10-18T16:26:56;7.33;;;4.50;;
8312;SDS011;4194;43.408;24.626;2022-10-18T16:29:22;8.03;;;4.13;;
8312;SDS011;4194;43.408;24.626;2022-10-18T16:31:55;14.00;;;4.57;;
8312;SDS011;4194;43.408;24.626;2022-10-18T16:34:23;10.27;;;5.40;;
8312;SDS011;4194;43.408;24.626;2022-10-18T16:36:51;14.00;;;5.97;;
8312;SDS011;4194;43.408;24.626;2022-10-18T16:39:18;16.20;;;8.00;;
8312;SDS011;4194;43.408;24.626;2022-10-18T16:41:45;16.33;;;8.63;;
8312;SDS011;4194;43.408;24.626;2022-10-18T16:44:12;14.07;;;6.90;;
8312;SDS011;4194;43.408;24.626;2022-10-18T16:46:39;14.00;;;7.33;;
8312;SDS011;4194;43.408;24.626;2022-10-18T16:49:05;17.60;;;7.53;;
8312;SDS011;4194;43.408;24.626;2022-10-18T16:51:31;15.87;;;7.37;;
8312;SDS011;4194;43.408;24.626;2022-10-18T16:53:57;16.60;;;7.57;;
8312;SDS011;4194;43.408;24.626;2022-10-18T16:56:24;16.20;;;7.83;;
8312;SDS011;4194;43.408;24.626;2022-10-18T16:58:53;19.53;;;10.27;;
8312;SDS011;4194;43.408;24.626;2022-10-18T17:01:19;13.73;;;8.10;;
8312;SDS011;4194;43.408;24.626;2022-10-18T17:03:46;18.53;;;10.17;;
8312;SDS011;4194;43.408;24.626;2022-10-18T17:06:13;21.13;;;11.30;;
8312;SDS011;4194;43.408;24.626;2022-10-18T17:08:43;21.77;;;10.60;;
8312;SDS011;4194;43.408;24.626;2022-10-18T17:11:09;20.67;;;8.60;;
8312;SDS011;4194;43.408;24.626;2022-10-18T17:13:50;12.20;;;8.67;;
8312;SDS011;4194;43.408;24.626;2022-10-18T17:16:23;21.73;;;9.00;;
8312;SDS011;4194;43.408;24.626;2022-10-18T17:18:58;18.33;;;7.53;;
8312;SDS011;4194;43.408;24.626;2022-10-18T17:21:25;15.63;;;6.97;;
8312;SDS011;4194;43.408;24.626;2022-10-18T17:23:52;15.30;;;7.57;;
8312;SDS011;4194;43.408;24.626;2022-10-18T17:26:20;17.10;;;8.07;;
8312;SDS011;4194;43.408;24.626;2022-10-18T17:28:53;19.77;;;7.30;;
8312;SDS011;4194;43.408;24.626;2022-10-18T17:31:26;18.87;;;7.47;;
8312;SDS011;4194;43.408;24.626;2022-10-18T17:33:52;9.37;;;5.27;;
8312;SDS011;4194;43.408;24.626;2022-10-18T17:36:19;14.30;;;6.77;;
8312;SDS011;4194;43.408;24.626;2022-10-18T17:38:48;18.47;;;7.70;;
8312;SDS011;4194;43.408;24.626;2022-10-18T17:41:14;14.20;;;6.30;;
8312;SDS011;4194;43.408;24.626;2022-10-18T17:43:40;9.27;;;4.90;;
8312;SDS011;4194;43.408;24.626;2022-10-18T17:46:06;14.20;;;5.40;;
8312;SDS011;4194;43.408;24.626;2022-10-18T17:48:32;12.30;;;5.60;;
8312;SDS011;4194;43.408;24.626;2022-10-18T17:50:58;14.43;;;6.70;;
8312;SDS011;4194;43.408;24.626;2022-10-18T17:53:24;14.70;;;6.37;;
8312;SDS011;4194;43.408;24.626;2022-10-18T17:55:56;15.00;;;6.80;;
8312;SDS011;4194;43.408;24.626;2022-10-18T17:58:23;12.13;;;5.57;;
8312;SDS011;4194;43.408;24.626;2022-10-18T18:00:49;15.47;;;6.73;;
8312;SDS011;4194;43.408;24.626;2022-10-18T18:03:14;14.77;;;7.40;;